Time,TemperatureF,DewpointF,PressureIn,WindDirection,WindDirectionDegrees,WindSpeedMPH,WindSpeedGustMPH,Humidity,HourlyPrecipIn,Conditions,Clouds,dailyrainin,SolarRadiationWatts/m^2,SoftwareType,DateUTC
2013-03-02 00:01:00,6.0,2.0,-100.00,NW,322,1.0,5.0,82,0.00,,,0.00,0.000000,,2013-03-02 06:01:00,
2013-03-02 00:10:00,4.0,1.0,-100.00,North,352,2.0,3.0,87,0.00,,,0.00,0.000000,,2013-03-02 06:10:00,
2013-03-02 00:32:00,4.0,1.0,-100.00,North,352,2.0,3.0,87,0.00,,,0.00,0.000000,,2013-03-02 06:32:00,
2013-03-02 00:42:00,4.0,1.0,-100.00,North,352,2.0,3.0,87,0.00,,,0.00,0.000000,,2013-03-02 06:42:00,
2013-03-02 00:52:00,4.0,1.0,-100.00,North,352,2.0,3.0,87,0.00,,,0.00,0.000000,,2013-03-02 06:52:00,
2013-03-02 01:01:00,4.0,1.0,-100.00,North,352,2.0,3.0,87,0.00,,,0.00,0.000000,,2013-03-02 07:01:00,
2013-03-02 01:10:00,7.0,4.0,-100.00,North,352,3.0,6.0,86,0.00,,,0.00,0.000000,,2013-03-02 07:10:00,
2013-03-02 01:32:00,7.0,4.0,-100.00,North,352,3.0,6.0,86,0.00,,,0.00,0.000000,,2013-03-02 07:32:00,
2013-03-02 01:42:00,7.0,4.0,-100.00,North,352,3.0,6.0,86,0.00,,,0.00,0.000000,,2013-03-02 07:42:00,
2013-03-02 01:52:00,7.0,4.0,-100.00,North,352,3.0,6.0,86,0.00,,,0.00,0.000000,,2013-03-02 07:52:00,
2013-03-02 02:01:00,7.0,4.0,-100.00,North,352,3.0,6.0,86,0.00,,,0.00,0.000000,,2013-03-02 08:01:00,
2013-03-02 02:10:00,7.0,3.0,-100.00,North,352,2.0,6.0,82,0.00,,,0.00,0.000000,,2013-03-02 08:10:00,
2013-03-02 02:32:00,7.0,3.0,-100.00,North,352,2.0,6.0,82,0.00,,,0.00,0.000000,,2013-03-02 08:32:00,
2013-03-02 02:43:00,7.0,3.0,-100.00,North,352,2.0,6.0,82,0.00,,,0.00,0.000000,,2013-03-02 08:43:00,
2013-03-02 02:52:00,7.0,3.0,-100.00,North,352,2.0,6.0,82,0.00,,,0.00,0.000000,,2013-03-02 08:52:00,
2013-03-02 03:02:00,7.0,3.0,-100.00,North,352,2.0,6.0,82,0.00,,,0.00,0.000000,,2013-03-02 09:02:00,
2013-03-02 03:10:00,3.0,0.0,-100.00,NNE,29,1.0,3.0,85,0.00,,,0.00,0.000000,,2013-03-02 09:10:00,
2013-03-02 03:32:00,3.0,0.0,-100.00,NNE,29,1.0,3.0,85,0.00,,,0.00,0.000000,,2013-03-02 09:32:00,
2013-03-02 03:42:00,3.0,0.0,-100.00,NNE,29,1.0,3.0,85,0.00,,,0.00,0.000000,,2013-03-02 09:42:00,
2013-03-02 03:52:00,3.0,0.0,-100.00,NNE,29,1.0,3.0,85,0.00,,,0.00,0.000000,,2013-03-02 09:52:00,
2013-03-02 04:01:00,3.0,0.0,-100.00,NNE,29,1.0,3.0,85,0.00,,,0.00,0.000000,,2013-03-02 10:01:00,
2013-03-02 04:10:00,1.0,-3.0,-100.00,NNE,16,1.0,2.0,84,0.00,,,0.00,0.000000,,2013-03-02 10:10:00,
2013-03-02 04:32:00,1.0,-3.0,-100.00,NNE,16,1.0,2.0,84,0.00,,,0.00,0.000000,,2013-03-02 10:32:00,
2013-03-02 04:43:00,1.0,-3.0,-100.00,NNE,16,1.0,2.0,84,0.00,,,0.00,0.000000,,2013-03-02 10:43:00,
2013-03-02 04:52:00,1.0,-3.0,-100.00,NNE,16,1.0,2.0,84,0.00,,,0.00,0.000000,,2013-03-02 10:52:00,
2013-03-02 05:01:00,1.0,-3.0,-100.00,NNE,16,1.0,2.0,84,0.00,,,0.00,0.000000,,2013-03-02 11:01:00,
2013-03-02 05:10:00,-2.0,-6.0,-100.00,WSW,253,1.0,2.0,82,0.00,,,0.00,0.000000,,2013-03-02 11:10:00,
2013-03-02 05:32:00,-2.0,-6.0,-100.00,WSW,253,1.0,2.0,82,0.00,,,0.00,0.000000,,2013-03-02 11:32:00,
2013-03-02 05:42:00,-2.0,-6.0,-100.00,WSW,253,1.0,2.0,82,0.00,,,0.00,0.000000,,2013-03-02 11:42:00,
2013-03-02 05:52:00,-2.0,-6.0,-100.00,WSW,253,1.0,2.0,82,0.00,,,0.00,0.000000,,2013-03-02 11:52:00,
2013-03-02 06:02:00,-2.0,-6.0,-100.00,WSW,253,1.0,2.0,82,0.00,,,0.00,0.000000,,2013-03-02 12:02:00,
2013-03-02 06:10:00,-5.0,-10.0,-100.00,WNW,303,0.0,2.0,80,0.00,,,0.00,0.000000,,2013-03-02 12:10:00,
2013-03-02 06:33:00,-5.0,-10.0,-100.00,WNW,303,0.0,2.0,80,0.00,,,0.00,0.000000,,2013-03-02 12:33:00,
2013-03-02 06:43:00,-5.0,-10.0,-100.00,WNW,303,0.0,2.0,80,0.00,,,0.00,0.000000,,2013-03-02 12:43:00,
2013-03-02 06:53:00,-5.0,-10.0,-100.00,WNW,303,0.0,2.0,80,0.00,,,0.00,0.000000,,2013-03-02 12:53:00,
2013-03-02 07:01:00,-5.0,-10.0,-100.00,WNW,303,0.0,2.0,80,0.00,,,0.00,0.000000,,2013-03-02 13:01:00,
2013-03-02 07:10:00,-7.0,-12.0,-100.00,NNE,20,0.0,2.0,77,0.00,,,0.00,4.000000,,2013-03-02 13:10:00,
2013-03-02 07:42:00,-7.0,-12.0,-100.00,NNE,20,0.0,2.0,77,0.00,,,0.00,4.000000,,2013-03-02 13:42:00,
2013-03-02 07:52:00,-7.0,-12.0,-100.00,NNE,20,0.0,2.0,77,0.00,,,0.00,4.000000,,2013-03-02 13:52:00,
2013-03-02 08:01:00,-7.0,-12.0,-100.00,NNE,20,0.0,2.0,77,0.00,,,0.00,4.000000,,2013-03-02 14:01:00,
2013-03-02 08:10:00,-4.0,-9.0,-100.00,NNE,21,0.0,2.0,78,0.00,,,0.00,20.000000,,2013-03-02 14:10:00,
2013-03-02 08:32:00,-4.0,-9.0,-100.00,NNE,21,0.0,2.0,78,0.00,,,0.00,20.000000,,2013-03-02 14:32:00,
2013-03-02 08:42:00,-4.0,-9.0,-100.00,NNE,21,0.0,2.0,78,0.00,,,0.00,20.000000,,2013-03-02 14:42:00,
2013-03-02 08:52:00,-4.0,-9.0,-100.00,NNE,21,0.0,2.0,78,0.00,,,0.00,20.000000,,2013-03-02 14:52:00,
2013-03-02 09:02:00,-4.0,-9.0,-100.00,NNE,21,0.0,2.0,78,0.00,,,0.00,20.000000,,2013-03-02 15:02:00,
2013-03-02 09:10:00,13.0,9.0,-100.00,North,358,6.0,11.0,82,0.00,,,0.00,143.000000,,2013-03-02 15:10:00,
2013-03-02 09:32:00,13.0,9.0,-100.00,North,358,6.0,11.0,82,0.00,,,0.00,143.000000,,2013-03-02 15:32:00,
2013-03-02 09:42:00,13.0,9.0,-100.00,North,358,6.0,11.0,82,0.00,,,0.00,143.000000,,2013-03-02 15:42:00,
2013-03-02 09:52:00,13.0,9.0,-100.00,North,358,6.0,11.0,82,0.00,,,0.00,143.000000,,2013-03-02 15:52:00,
2013-03-02 10:01:00,13.0,9.0,-100.00,North,358,6.0,11.0,82,0.00,,,0.00,143.000000,,2013-03-02 16:01:00,
2013-03-02 10:10:00,17.0,7.0,-100.00,North,2,8.0,15.0,65,0.00,,,0.00,84.000000,,2013-03-02 16:10:00,
2013-03-02 10:32:00,17.0,7.0,-100.00,North,2,8.0,15.0,65,0.00,,,0.00,84.000000,,2013-03-02 16:32:00,
2013-03-02 10:42:00,17.0,7.0,-100.00,North,2,8.0,15.0,65,0.00,,,0.00,84.000000,,2013-03-02 16:42:00,
2013-03-02 10:52:00,17.0,7.0,-100.00,North,2,8.0,15.0,65,0.00,,,0.00,84.000000,,2013-03-02 16:52:00,
2013-03-02 11:01:00,17.0,7.0,-100.00,North,2,8.0,15.0,65,0.00,,,0.00,84.000000,,2013-03-02 17:01:00,
2013-03-02 11:10:00,21.0,7.0,-100.00,North,358,7.0,14.0,55,0.00,,,0.00,351.000000,,2013-03-02 17:10:00,
2013-03-02 11:32:00,21.0,7.0,-100.00,North,358,7.0,14.0,55,0.00,,,0.00,351.000000,,2013-03-02 17:32:00,
2013-03-02 11:42:00,21.0,7.0,-100.00,North,358,7.0,14.0,55,0.00,,,0.00,351.000000,,2013-03-02 17:42:00,
2013-03-02 11:52:00,21.0,7.0,-100.00,North,358,7.0,14.0,55,0.00,,,0.00,351.000000,,2013-03-02 17:52:00,
2013-03-02 12:02:00,21.0,7.0,-100.00,North,358,7.0,14.0,55,0.00,,,0.00,351.000000,,2013-03-02 18:02:00,
2013-03-02 12:10:00,26.0,9.0,-100.00,North,6,5.0,15.0,47,0.00,,,0.00,633.000000,,2013-03-02 18:10:00,
2013-03-02 12:32:00,26.0,9.0,-100.00,North,6,5.0,15.0,47,0.00,,,0.00,633.000000,,2013-03-02 18:32:00,
2013-03-02 12:42:00,26.0,9.0,-100.00,North,6,5.0,15.0,47,0.00,,,0.00,633.000000,,2013-03-02 18:42:00,
2013-03-02 12:52:00,26.0,9.0,-100.00,North,6,5.0,15.0,47,0.00,,,0.00,633.000000,,2013-03-02 18:52:00,
2013-03-02 13:01:00,26.0,9.0,-100.00,North,6,5.0,15.0,47,0.00,,,0.00,633.000000,,2013-03-02 19:01:00,
2013-03-02 13:10:00,27.0,7.0,-100.00,North,357,8.0,15.0,42,0.00,,,0.00,623.000000,,2013-03-02 19:10:00,
2013-03-02 13:42:00,27.0,7.0,-100.00,North,357,8.0,15.0,42,0.00,,,0.00,623.000000,,2013-03-02 19:42:00,
2013-03-02 13:52:00,27.0,7.0,-100.00,North,357,8.0,15.0,42,0.00,,,0.00,623.000000,,2013-03-02 19:52:00,
2013-03-02 14:01:00,27.0,7.0,-100.00,North,357,8.0,15.0,42,0.00,,,0.00,623.000000,,2013-03-02 20:01:00,
2013-03-02 14:10:00,29.0,6.0,-100.00,North,350,7.0,15.0,37,0.00,,,0.00,563.000000,,2013-03-02 20:10:00,
2013-03-02 14:32:00,29.0,6.0,-100.00,North,350,7.0,15.0,37,0.00,,,0.00,563.000000,,2013-03-02 20:32:00,
2013-03-02 14:42:00,29.0,6.0,-100.00,North,350,7.0,15.0,37,0.00,,,0.00,563.000000,,2013-03-02 20:42:00,
2013-03-02 14:53:00,29.0,6.0,-100.00,North,350,7.0,15.0,37,0.00,,,0.00,563.000000,,2013-03-02 20:53:00,
2013-03-02 15:02:00,29.0,6.0,-100.00,North,350,7.0,15.0,37,0.00,,,0.00,563.000000,,2013-03-02 21:02:00,
2013-03-02 15:10:00,29.0,5.0,-100.00,North,356,8.0,14.0,35,0.00,,,0.00,450.000000,,2013-03-02 21:10:00,
2013-03-02 15:32:00,29.0,5.0,-100.00,North,356,8.0,14.0,35,0.00,,,0.00,450.000000,,2013-03-02 21:32:00,
2013-03-02 15:42:00,29.0,5.0,-100.00,North,356,8.0,14.0,35,0.00,,,0.00,450.000000,,2013-03-02 21:42:00,
2013-03-02 15:52:00,29.0,5.0,-100.00,North,356,8.0,14.0,35,0.00,,,0.00,450.000000,,2013-03-02 21:52:00,
2013-03-02 16:02:00,29.0,5.0,-100.00,North,356,8.0,14.0,35,0.00,,,0.00,450.000000,,2013-03-02 22:02:00,
2013-03-02 16:10:00,28.0,4.0,-100.00,North,355,5.0,13.0,35,0.00,,,0.00,301.000000,,2013-03-02 22:10:00,
2013-03-02 16:42:00,28.0,4.0,-100.00,North,355,5.0,13.0,35,0.00,,,0.00,301.000000,,2013-03-02 22:42:00,
2013-03-02 16:52:00,28.0,4.0,-100.00,North,355,5.0,13.0,35,0.00,,,0.00,301.000000,,2013-03-02 22:52:00,
2013-03-02 17:01:00,28.0,4.0,-100.00,North,355,5.0,13.0,35,0.00,,,0.00,301.000000,,2013-03-02 23:01:00,
2013-03-02 17:10:00,24.0,1.0,-100.00,NNE,13,5.0,13.0,36,0.00,,,0.00,125.000000,,2013-03-02 23:10:00,
2013-03-02 17:32:00,24.0,1.0,-100.00,NNE,13,5.0,13.0,36,0.00,,,0.00,125.000000,,2013-03-02 23:32:00,
2013-03-02 17:42:00,24.0,1.0,-100.00,NNE,13,5.0,13.0,36,0.00,,,0.00,125.000000,,2013-03-02 23:42:00,
2013-03-02 17:52:00,24.0,1.0,-100.00,NNE,13,5.0,13.0,36,0.00,,,0.00,125.000000,,2013-03-02 23:52:00,
2013-03-02 18:02:00,24.0,1.0,-100.00,NNE,13,5.0,13.0,36,0.00,,,0.00,125.000000,,2013-03-03 00:02:00,
2013-03-02 18:10:00,19.0,1.0,-100.00,North,11,3.0,7.0,44,0.00,,,0.00,7.000000,,2013-03-03 00:10:00,
2013-03-02 18:32:00,19.0,1.0,-100.00,North,11,3.0,7.0,44,0.00,,,0.00,7.000000,,2013-03-03 00:32:00,
2013-03-02 18:42:00,19.0,1.0,-100.00,North,11,3.0,7.0,44,0.00,,,0.00,7.000000,,2013-03-03 00:42:00,
2013-03-02 18:52:00,19.0,1.0,-100.00,North,11,3.0,7.0,44,0.00,,,0.00,7.000000,,2013-03-03 00:52:00,
2013-03-02 19:01:00,19.0,1.0,-100.00,North,11,3.0,7.0,44,0.00,,,0.00,7.000000,,2013-03-03 01:01:00,
2013-03-02 19:10:00,13.0,2.0,-100.00,North,5,2.0,5.0,61,0.00,,,0.00,0.000000,,2013-03-03 01:10:00,
2013-03-02 19:32:00,13.0,2.0,-100.00,North,5,2.0,5.0,61,0.00,,,0.00,0.000000,,2013-03-03 01:32:00,
2013-03-02 19:42:00,13.0,2.0,-100.00,North,5,2.0,5.0,61,0.00,,,0.00,0.000000,,2013-03-03 01:42:00,
2013-03-02 19:52:00,13.0,2.0,-100.00,North,5,2.0,5.0,61,0.00,,,0.00,0.000000,,2013-03-03 01:52:00,
2013-03-02 20:01:00,13.0,2.0,-100.00,North,5,2.0,5.0,61,0.00,,,0.00,0.000000,,2013-03-03 02:01:00,
2013-03-02 20:10:00,14.0,4.0,-100.00,North,7,2.0,5.0,65,0.00,,,0.00,0.000000,,2013-03-03 02:10:00,
2013-03-02 20:32:00,14.0,4.0,-100.00,North,7,2.0,5.0,65,0.00,,,0.00,0.000000,,2013-03-03 02:32:00,
2013-03-02 20:42:00,14.0,4.0,-100.00,North,7,2.0,5.0,65,0.00,,,0.00,0.000000,,2013-03-03 02:42:00,
2013-03-02 20:52:00,14.0,4.0,-100.00,North,7,2.0,5.0,65,0.00,,,0.00,0.000000,,2013-03-03 02:52:00,
2013-03-02 21:01:00,14.0,4.0,-100.00,North,7,2.0,5.0,65,0.00,,,0.00,0.000000,,2013-03-03 03:01:00,
2013-03-02 21:10:00,12.0,4.0,-100.00,North,350,3.0,6.0,69,0.00,,,0.00,0.000000,,2013-03-03 03:10:00,
2013-03-02 21:32:00,12.0,4.0,-100.00,North,350,3.0,6.0,69,0.00,,,0.00,0.000000,,2013-03-03 03:32:00,
2013-03-02 21:42:00,12.0,4.0,-100.00,North,350,3.0,6.0,69,0.00,,,0.00,0.000000,,2013-03-03 03:42:00,
2013-03-02 21:52:00,12.0,4.0,-100.00,North,350,3.0,6.0,69,0.00,,,0.00,0.000000,,2013-03-03 03:52:00,
2013-03-02 22:01:00,12.0,4.0,-100.00,North,350,3.0,6.0,69,0.00,,,0.00,0.000000,,2013-03-03 04:01:00,
2013-03-02 22:10:00,7.0,2.0,-100.00,North,2,1.0,4.0,78,0.00,,,0.00,0.000000,,2013-03-03 04:10:00,
2013-03-02 22:32:00,7.0,2.0,-100.00,North,2,1.0,4.0,78,0.00,,,0.00,0.000000,,2013-03-03 04:32:00,
2013-03-02 22:42:00,7.0,2.0,-100.00,North,2,1.0,4.0,78,0.00,,,0.00,0.000000,,2013-03-03 04:42:00,
2013-03-02 22:52:00,7.0,2.0,-100.00,North,2,1.0,4.0,78,0.00,,,0.00,0.000000,,2013-03-03 04:52:00,
2013-03-02 23:02:00,7.0,2.0,-100.00,North,2,1.0,4.0,78,0.00,,,0.00,0.000000,,2013-03-03 05:02:00,
2013-03-02 23:10:00,3.0,0.0,-100.00,NW,320,0.0,2.0,85,0.00,,,0.00,0.000000,,2013-03-03 05:10:00,
2013-03-02 23:32:00,3.0,0.0,-100.00,NW,320,0.0,2.0,85,0.00,,,0.00,0.000000,,2013-03-03 05:32:00,
2013-03-02 23:42:00,3.0,0.0,-100.00,NW,320,0.0,2.0,85,0.00,,,0.00,0.000000,,2013-03-03 05:42:00,
2013-03-02 23:52:00,3.0,0.0,-100.00,NW,320,0.0,2.0,85,0.00,,,0.00,0.000000,,2013-03-03 05:52:00,